createdAt,value
2016-06-05T00:00:32.508Z,0
2016-06-05T00:01:32.527Z,0
2016-06-05T00:02:32.420Z,0
2016-06-05T00:03:32.610Z,0
2016-06-05T00:04:32.644Z,0
2016-06-05T00:05:32.678Z,0
2016-06-05T00:06:32.728Z,0
2016-06-05T00:07:32.761Z,0
2016-06-05T00:08:32.638Z,0
2016-06-05T00:09:32.845Z,0
2016-06-05T00:10:32.894Z,0
2016-06-05T00:11:32.913Z,0
2016-06-05T00:12:34.244Z,0
2016-06-05T00:13:33.513Z,0
2016-06-05T00:14:32.890Z,0
2016-06-05T00:15:33.064Z,0
2016-06-05T00:16:33.129Z,0
2016-06-05T00:17:33.163Z,0
2016-06-05T00:18:33.198Z,0
2016-06-05T00:19:33.232Z,0
2016-06-05T00:20:33.156Z,0
2016-06-05T00:21:33.315Z,0
2016-06-05T00:22:33.349Z,0
2016-06-05T00:23:33.414Z,0
2016-06-05T00:24:33.432Z,0
2016-06-05T00:25:33.467Z,0
2016-06-05T00:26:33.516Z,0
2016-06-05T00:27:34.409Z,0
2016-06-05T00:28:34.178Z,0
2016-06-05T00:29:33.633Z,0
2016-06-05T00:30:33.683Z,0
2016-06-05T00:31:33.701Z,0
2016-06-05T00:32:33.594Z,0
2016-06-05T00:33:33.784Z,0
2016-06-05T00:34:33.662Z,0
2016-06-05T00:35:33.868Z,0
2016-06-05T00:36:33.902Z,0
2016-06-05T00:37:33.952Z,0
2016-06-05T00:38:33.830Z,0
2016-06-05T00:39:33.863Z,0
2016-06-05T00:40:34.053Z,0
2016-06-05T00:41:34.088Z,0
2016-06-05T00:42:34.184Z,0
2016-06-05T00:43:34.640Z,0
2016-06-05T00:44:34.204Z,0
2016-06-05T00:45:34.255Z,0
2016-06-05T00:46:34.288Z,0
2016-06-05T00:47:34.181Z,0
2016-06-05T00:48:34.371Z,0
2016-06-05T00:49:34.421Z,0
2016-06-05T00:50:34.299Z,0
2016-06-05T00:51:34.490Z,0
2016-06-05T00:52:34.523Z,0
2016-06-05T00:53:34.573Z,0
2016-06-05T00:54:34.607Z,0
2016-06-05T00:55:34.640Z,0
2016-06-05T00:56:34.534Z,0
2016-06-05T00:57:35.209Z,0
2016-06-05T00:58:35.290Z,0
2016-06-05T00:59:34.808Z,0
2016-06-05T01:00:34.857Z,0
2016-06-05T01:01:34.907Z,0
2016-06-05T01:02:34.925Z,0
2016-06-05T01:03:34.958Z,0
2016-06-05T01:04:35.009Z,0
2016-06-05T01:05:35.027Z,0
2016-06-05T01:06:35.077Z,0
2016-06-05T01:07:35.142Z,0
2016-06-05T01:08:35.160Z,0
2016-06-05T01:09:35.210Z,0
2016-06-05T01:10:35.228Z,0
2016-06-05T01:11:35.262Z,0
2016-06-05T01:12:35.780Z,0
2016-06-05T01:13:35.049Z,0
2016-06-05T01:14:35.379Z,0
2016-06-05T01:15:35.413Z,0
2016-06-05T01:16:35.463Z,0
2016-06-05T01:17:35.496Z,0
2016-06-05T01:18:35.530Z,0
2016-06-05T01:19:35.580Z,0
2016-06-05T01:20:35.615Z,0
2016-06-05T01:21:35.680Z,0
2016-06-05T01:22:35.698Z,0
2016-06-05T01:23:35.748Z,0
2016-06-05T01:24:35.765Z,0
2016-06-05T01:25:35.831Z,0
2016-06-05T01:26:35.849Z,0
2016-06-05T01:27:36.461Z,0
2016-06-05T01:28:36.807Z,0
2016-06-05T01:29:35.967Z,0
2016-06-05T01:30:36.016Z,0
2016-06-05T01:31:36.051Z,0
2016-06-05T01:32:36.100Z,0
2016-06-05T01:33:36.133Z,0
2016-06-05T01:34:36.167Z,0
2016-06-05T01:35:36.201Z,0
2016-06-05T01:36:36.236Z,0
2016-06-05T01:37:36.286Z,0
2016-06-05T01:38:36.334Z,0
2016-06-05T01:39:36.368Z,0
2016-06-05T01:40:36.403Z,0
2016-06-05T01:41:36.436Z,0
2016-06-05T01:42:36.470Z,0
2016-06-05T01:43:36.614Z,0
2016-06-05T01:44:36.570Z,0
2016-06-05T01:45:36.588Z,0
2016-06-05T01:46:36.637Z,0
2016-06-05T01:47:36.671Z,0
2016-06-05T01:48:36.705Z,0
2016-06-05T01:49:36.598Z,0
2016-06-05T01:50:36.774Z,0
2016-06-05T01:51:36.823Z,0
2016-06-05T01:52:36.872Z,0
2016-06-05T01:53:36.906Z,0
2016-06-05T01:54:36.940Z,0
2016-06-05T01:55:36.677Z,0
2016-06-05T01:56:37.024Z,0
2016-06-05T01:57:37.073Z,0
2016-06-05T01:58:37.622Z,0
2016-06-05T01:59:37.140Z,0
2016-06-05T02:00:37.035Z,0
2016-06-05T02:01:37.225Z,0
2016-06-05T02:02:37.274Z,0
2016-06-05T02:03:37.293Z,0
2016-06-05T02:04:37.326Z,0
2016-06-05T02:05:37.376Z,0
2016-06-05T02:06:37.238Z,0
2016-06-05T02:07:37.444Z,0
2016-06-05T02:08:37.494Z,0
2016-06-05T02:09:37.527Z,0
2016-06-05T02:10:37.420Z,0
2016-06-05T02:11:37.611Z,0
2016-06-05T02:12:37.739Z,0
2016-06-05T02:13:38.397Z,0
2016-06-05T02:14:37.728Z,0
2016-06-05T02:15:37.746Z,0
2016-06-05T02:16:37.796Z,0
2016-06-05T02:17:37.830Z,0
2016-06-05T02:18:37.551Z,0
2016-06-05T02:19:37.913Z,0
2016-06-05T02:20:37.963Z,0
2016-06-05T02:21:37.997Z,0
2016-06-05T02:22:38.031Z,0
2016-06-05T02:23:38.065Z,0
2016-06-05T02:24:38.098Z,0
2016-06-05T02:25:38.148Z,0
2016-06-05T02:26:38.183Z,0
2016-06-05T02:27:38.091Z,0
2016-06-05T02:28:38.140Z,0
2016-06-05T02:29:38.300Z,0
2016-06-05T02:30:38.334Z,0
2016-06-05T02:31:38.399Z,0
2016-06-05T02:32:38.417Z,0
2016-06-05T02:33:38.451Z,0
2016-06-05T02:34:38.485Z,0
2016-06-05T02:35:38.362Z,0
2016-06-05T02:36:38.584Z,0
2016-06-05T02:37:38.603Z,0
2016-06-05T02:38:38.653Z,0
2016-06-05T02:39:38.702Z,0
2016-06-05T02:40:38.735Z,0
2016-06-05T02:41:38.754Z,0
2016-06-05T02:42:39.944Z,0
2016-06-05T02:43:39.118Z,0
2016-06-05T02:44:38.872Z,0
2016-06-05T02:45:38.936Z,0
2016-06-05T02:46:38.955Z,0
2016-06-05T02:47:38.989Z,0
2016-06-05T02:48:39.039Z,0
2016-06-05T02:49:39.072Z,0
2016-06-05T02:50:38.950Z,0
2016-06-05T02:51:39.141Z,0
2016-06-05T02:52:39.191Z,0
2016-06-05T02:53:39.224Z,0
2016-06-05T02:54:39.257Z,0
2016-06-05T02:55:39.292Z,0
2016-06-05T02:56:39.341Z,0
2016-06-05T02:57:39.828Z,0
2016-06-05T02:58:39.879Z,0
2016-06-05T02:59:39.443Z,0
2016-06-05T03:00:39.336Z,0
2016-06-05T03:01:39.526Z,0
2016-06-05T03:02:39.560Z,0
2016-06-05T03:03:39.610Z,0
2016-06-05T03:04:39.644Z,0
2016-06-05T03:05:39.553Z,0
2016-06-05T03:06:39.711Z,0
2016-06-05T03:07:39.761Z,0
2016-06-05T03:08:39.795Z,5
2016-06-05T03:09:39.688Z,5
2016-06-05T03:10:39.895Z,5
2016-06-05T03:11:39.929Z,5
2016-06-05T03:12:40.697Z,5
2016-06-05T03:13:39.887Z,5
2016-06-05T03:14:40.014Z,5
2016-06-05T03:15:39.924Z,5
2016-06-05T03:16:40.114Z,5
2016-06-05T03:17:40.147Z,10
2016-06-05T03:18:40.182Z,10
2016-06-05T03:19:40.215Z,10
2016-06-05T03:20:40.265Z,10
2016-06-05T03:21:40.299Z,10
2016-06-05T03:22:40.332Z,10
2016-06-05T03:23:40.366Z,10
2016-06-05T03:24:40.416Z,15
2016-06-05T03:25:40.451Z,15
2016-06-05T03:26:40.485Z,15
2016-06-05T03:27:41.331Z,15
2016-06-05T03:28:40.427Z,15
2016-06-05T03:29:40.602Z,15
2016-06-05T03:30:40.635Z,20
2016-06-05T03:31:40.670Z,20
2016-06-05T03:32:40.720Z,20
2016-06-05T03:33:40.768Z,20
2016-06-05T03:34:40.803Z,20
2016-06-05T03:35:40.681Z,25
2016-06-05T03:36:40.902Z,25
2016-06-05T03:37:40.764Z,25
2016-06-05T03:38:40.939Z,25
2016-06-05T03:39:40.676Z,30
2016-06-05T03:40:41.022Z,30
2016-06-05T03:41:41.056Z,30
2016-06-05T03:42:41.339Z,30
2016-06-05T03:43:41.703Z,35
2016-06-05T03:44:41.173Z,35
2016-06-05T03:45:41.222Z,35
2016-06-05T03:46:41.241Z,35
2016-06-05T03:47:41.291Z,40
2016-06-05T03:48:41.325Z,40
2016-06-05T03:49:41.375Z,40
2016-06-05T03:50:41.408Z,45
2016-06-05T03:51:41.458Z,45
2016-06-05T03:52:41.477Z,45
2016-06-05T03:53:41.510Z,50
2016-06-05T03:54:41.560Z,50
2016-06-05T03:55:41.594Z,50
2016-06-05T03:56:41.612Z,50
2016-06-05T03:57:42.505Z,55
2016-06-05T03:58:41.117Z,55
2016-06-05T03:59:41.745Z,55
2016-06-05T04:00:41.795Z,60
2016-06-05T04:01:41.829Z,60
2016-06-05T04:02:41.863Z,60
2016-06-05T04:03:41.896Z,65
2016-06-05T04:04:41.931Z,65
2016-06-05T04:05:41.980Z,65
2016-06-05T04:06:42.014Z,65
2016-06-05T04:07:42.064Z,65
2016-06-05T04:08:42.128Z,70
2016-06-05T04:09:42.131Z,70
2016-06-05T04:10:42.165Z,70
2016-06-05T04:11:42.215Z,70
2016-06-05T04:12:43.358Z,70
2016-06-05T04:13:42.017Z,75
2016-06-05T04:14:42.333Z,75
2016-06-05T04:15:42.351Z,75
2016-06-05T04:16:42.416Z,80
2016-06-05T04:17:42.457Z,80
2016-06-05T04:18:42.518Z,80
2016-06-05T04:19:42.579Z,85
2016-06-05T04:20:42.657Z,85
2016-06-05T04:21:42.719Z,90
2016-06-05T04:22:42.776Z,90
2016-06-05T04:23:42.819Z,95
2016-06-05T04:24:42.879Z,95
2016-06-05T04:25:42.923Z,100
2016-06-05T04:26:42.967Z,100
2016-06-05T04:27:43.010Z,100
2016-06-05T04:28:44.110Z,110
2016-06-05T04:29:43.101Z,130
2016-06-05T04:30:43.155Z,150
2016-06-05T04:31:43.192Z,155
2016-06-05T04:32:43.229Z,165
2016-06-05T04:33:43.263Z,170
2016-06-05T04:34:43.300Z,175
2016-06-05T04:35:43.334Z,180
2016-06-05T04:36:43.400Z,180
2016-06-05T04:37:43.435Z,180
2016-06-05T04:38:43.470Z,190
2016-06-05T04:39:43.519Z,195
2016-06-05T04:40:43.538Z,205
2016-06-05T04:41:43.573Z,215
2016-06-05T04:42:43.763Z,220
2016-06-05T04:43:44.095Z,220
2016-06-05T04:44:43.708Z,220
2016-06-05T04:45:43.741Z,225
2016-06-05T04:46:43.792Z,230
2016-06-05T04:47:43.825Z,235
2016-06-05T04:48:43.703Z,240
2016-06-05T04:49:43.894Z,245
2016-06-05T04:50:43.942Z,245
2016-06-05T04:51:43.992Z,250
2016-06-05T04:52:44.027Z,260
2016-06-05T04:53:44.076Z,270
2016-06-05T04:54:44.110Z,270
2016-06-05T04:55:44.144Z,275
2016-06-05T04:56:44.037Z,280
2016-06-05T04:57:44.806Z,290
2016-06-05T04:58:44.152Z,305
2016-06-05T04:59:44.311Z,305
2016-06-05T05:00:44.360Z,315
2016-06-05T05:01:44.394Z,320
2016-06-05T05:02:44.429Z,325
2016-06-05T05:03:44.477Z,325
2016-06-05T05:04:44.355Z,330
2016-06-05T05:05:44.562Z,335
2016-06-05T05:06:44.611Z,345
2016-06-05T05:07:44.645Z,355
2016-06-05T05:08:44.710Z,355
2016-06-05T05:09:44.744Z,360
2016-06-05T05:10:44.779Z,365
2016-06-05T05:11:44.828Z,375
2016-06-05T05:12:46.017Z,375
2016-06-05T05:13:45.615Z,370
2016-06-05T05:14:44.945Z,375
2016-06-05T05:15:45.010Z,385
2016-06-05T05:16:45.028Z,405
2016-06-05T05:17:45.078Z,410
2016-06-05T05:18:45.128Z,405
2016-06-05T05:19:45.161Z,400
2016-06-05T05:20:45.195Z,405
2016-06-05T05:21:45.245Z,425
2016-06-05T05:22:45.295Z,430
2016-06-05T05:23:45.329Z,435
2016-06-05T05:24:45.394Z,375
2016-06-05T05:25:45.428Z,335
2016-06-05T05:26:45.478Z,425
2016-06-05T05:27:45.917Z,475
2016-06-05T05:28:45.795Z,485
2016-06-05T05:29:45.438Z,495
2016-06-05T05:30:45.644Z,505
2016-06-05T05:31:45.538Z,515
2016-06-05T05:32:45.744Z,515
2016-06-05T05:33:45.777Z,520
2016-06-05T05:34:45.827Z,540
2016-06-05T05:35:45.876Z,550
2016-06-05T05:36:45.910Z,560
2016-06-05T05:37:45.944Z,555
2016-06-05T05:38:45.994Z,565
2016-06-05T05:39:46.043Z,570
2016-06-05T05:40:46.077Z,580
2016-06-05T05:41:45.971Z,580
2016-06-05T05:42:46.943Z,580
2016-06-05T05:43:46.976Z,560
2016-06-05T05:44:46.275Z,455
2016-06-05T05:45:46.310Z,385
2016-06-05T05:46:46.359Z,445
2016-06-05T05:47:46.393Z,415
2016-06-05T05:48:46.442Z,315
2016-06-05T05:49:46.492Z,295
2016-06-05T05:50:46.542Z,390
2016-06-05T05:51:46.576Z,510
2016-06-05T05:52:46.625Z,580
2016-06-05T05:53:46.675Z,620
2016-06-05T05:54:46.725Z,635
2016-06-05T05:55:46.774Z,540
2016-06-05T05:56:46.808Z,360
2016-06-05T05:57:46.873Z,305
2016-06-05T05:58:46.908Z,290
2016-06-05T05:59:47.050Z,255
2016-06-05T06:00:47.194Z,210
2016-06-05T06:01:47.041Z,210
2016-06-05T06:02:47.090Z,200
2016-06-05T06:03:47.124Z,190
2016-06-05T06:04:47.158Z,190
2016-06-05T06:05:47.207Z,190
2016-06-05T06:06:47.257Z,190
2016-06-05T06:07:47.306Z,190
2016-06-05T06:08:47.340Z,190
2016-06-05T06:09:47.390Z,195
2016-06-05T06:10:47.282Z,195
2016-06-05T06:11:47.473Z,210
2016-06-05T06:12:47.663Z,200
2016-06-05T06:13:48.026Z,190
2016-06-05T06:14:47.606Z,190
2016-06-05T06:15:47.656Z,190
2016-06-05T06:16:47.690Z,190
2016-06-05T06:17:47.739Z,195
2016-06-05T06:18:47.773Z,215
2016-06-05T06:19:47.698Z,250
2016-06-05T06:20:47.857Z,280
2016-06-05T06:21:47.906Z,255
2016-06-05T06:22:47.940Z,260
2016-06-05T06:23:48.021Z,230
2016-06-05T06:24:48.025Z,200
2016-06-05T06:25:48.073Z,210
2016-06-05T06:26:48.122Z,215
2016-06-05T06:27:48.235Z,215
2016-06-05T06:28:48.206Z,210
2016-06-05T06:29:48.240Z,215
2016-06-05T06:30:48.305Z,210
2016-06-05T06:31:48.324Z,205
2016-06-05T06:32:48.374Z,200
2016-06-05T06:33:48.407Z,200
2016-06-05T06:34:48.472Z,205
2016-06-05T06:35:48.507Z,210
2016-06-05T06:36:48.540Z,215
2016-06-05T06:37:48.574Z,205
2016-06-05T06:38:48.640Z,200
2016-06-05T06:39:48.690Z,205
2016-06-05T06:40:48.723Z,200
2016-06-05T06:41:48.757Z,205
2016-06-05T06:42:48.682Z,215
2016-06-05T06:43:49.840Z,210
2016-06-05T06:44:48.890Z,205
2016-06-05T06:45:48.924Z,200
2016-06-05T06:46:48.973Z,200
2016-06-05T06:47:49.008Z,200
2016-06-05T06:48:49.057Z,210
2016-06-05T06:49:49.075Z,210
2016-06-05T06:50:49.140Z,215
2016-06-05T06:51:49.175Z,205
2016-06-05T06:52:49.053Z,205
2016-06-05T06:53:49.258Z,205
2016-06-05T06:54:49.308Z,205
2016-06-05T06:55:49.341Z,205
2016-06-05T06:56:49.391Z,205
2016-06-05T06:57:49.878Z,205
2016-06-05T06:58:49.756Z,205
2016-06-05T06:59:49.524Z,205
2016-06-05T07:00:49.542Z,205
2016-06-05T07:01:49.577Z,205
2016-06-05T07:02:49.626Z,205
2016-06-05T07:03:49.675Z,205
2016-06-05T07:04:49.725Z,205
2016-06-05T07:05:49.744Z,205
2016-06-05T07:06:49.778Z,210
2016-06-05T07:07:49.827Z,215
2016-06-05T07:08:49.861Z,220
2016-06-05T07:09:49.927Z,215
2016-06-05T07:10:49.960Z,210
2016-06-05T07:11:50.009Z,210
2016-06-05T07:12:51.340Z,210
2016-06-05T07:13:49.938Z,210
2016-06-05T07:14:50.127Z,220
2016-06-05T07:15:50.162Z,215
2016-06-05T07:16:50.195Z,215
2016-06-05T07:17:50.228Z,215
2016-06-05T07:18:50.279Z,215
2016-06-05T07:19:50.329Z,215
2016-06-05T07:20:50.362Z,215
2016-06-05T07:21:50.411Z,220
2016-06-05T07:22:50.445Z,220
2016-06-05T07:23:50.479Z,220
2016-06-05T07:24:50.514Z,225
2016-06-05T07:25:50.563Z,225
2016-06-05T07:26:50.612Z,225
2016-06-05T07:27:51.287Z,225
2016-06-05T07:28:50.931Z,230
2016-06-05T07:29:50.745Z,230
2016-06-05T07:30:50.764Z,235
2016-06-05T07:31:50.814Z,265
2016-06-05T07:32:50.910Z,275
2016-06-05T07:33:50.897Z,270
2016-06-05T07:34:50.947Z,240
2016-06-05T07:35:50.996Z,235
2016-06-05T07:36:51.046Z,235
2016-06-05T07:37:51.048Z,235
2016-06-05T07:38:51.099Z,235
2016-06-05T07:39:51.147Z,240
2016-06-05T07:40:51.182Z,240
2016-06-05T07:41:51.231Z,240
2016-06-05T07:42:51.280Z,240
2016-06-05T07:43:51.033Z,245
2016-06-05T07:44:52.239Z,280
2016-06-05T07:45:51.242Z,365
2016-06-05T07:46:51.432Z,715
2016-06-05T07:47:51.482Z,1260
2016-06-05T07:48:51.531Z,1520
2016-06-05T07:49:51.565Z,1545
2016-06-05T07:50:51.599Z,1540
2016-06-05T07:51:51.648Z,1525
2016-06-05T07:52:51.682Z,1500
2016-06-05T07:53:51.717Z,1495
2016-06-05T07:54:51.766Z,1475
2016-06-05T07:55:51.815Z,1470
2016-06-05T07:56:51.850Z,1470
2016-06-05T07:57:52.039Z,1490
2016-06-05T07:58:51.965Z,1490
2016-06-05T07:59:51.998Z,1485
2016-06-05T08:00:52.047Z,1495
2016-06-05T08:01:51.926Z,1515
2016-06-05T08:02:52.131Z,1540
2016-06-05T08:03:52.180Z,1565
2016-06-05T08:04:52.246Z,1570
2016-06-05T08:05:52.280Z,1600
2016-06-05T08:06:52.174Z,1615
2016-06-05T08:07:52.363Z,1620
2016-06-05T08:08:52.413Z,1615
2016-06-05T08:09:52.478Z,1635
2016-06-05T08:10:52.512Z,1685
2016-06-05T08:11:52.562Z,1705
2016-06-05T08:12:52.830Z,1690
2016-06-05T08:13:52.693Z,1655
2016-06-05T08:14:52.710Z,1585
2016-06-05T08:15:52.603Z,1530
2016-06-05T08:16:52.825Z,1485
2016-06-05T08:17:52.859Z,1445
2016-06-05T08:18:52.924Z,1405
2016-06-05T08:19:52.958Z,1375
2016-06-05T08:20:53.023Z,1375
2016-06-05T08:21:53.089Z,1370
2016-06-05T08:22:52.809Z,1375
2016-06-05T08:23:53.188Z,1405
2016-06-05T08:24:53.206Z,1480
2016-06-05T08:25:53.271Z,1540
2016-06-05T08:26:53.164Z,1605
2016-06-05T08:27:54.214Z,1650
2016-06-05T08:28:53.920Z,1705
2016-06-05T08:29:53.470Z,1740
2016-06-05T08:30:53.534Z,1755
2016-06-05T08:31:53.569Z,1780
2016-06-05T08:32:53.478Z,1805
2016-06-05T08:33:53.668Z,1800
2016-06-05T08:34:53.733Z,1810
2016-06-05T08:35:53.783Z,1805
2016-06-05T08:36:53.832Z,1830
2016-06-05T08:37:53.882Z,1840
2016-06-05T08:38:53.930Z,1845
2016-06-05T08:39:53.824Z,1845
2016-06-05T08:40:54.030Z,1850
2016-06-05T08:41:54.096Z,1855
2016-06-05T08:42:54.177Z,1900
2016-06-05T08:43:55.148Z,1910
2016-06-05T08:44:54.229Z,1885
2016-06-05T08:45:54.279Z,1880
2016-06-05T08:46:54.343Z,1865
2016-06-05T08:47:54.377Z,1855
2016-06-05T08:48:54.443Z,1890
2016-06-05T08:49:54.492Z,1955
2016-06-05T08:50:54.542Z,1990
2016-06-05T08:51:54.607Z,1975
2016-06-05T08:52:54.672Z,1940
2016-06-05T08:53:54.690Z,1895
2016-06-05T08:54:54.739Z,1860
2016-06-05T08:55:54.805Z,1860
2016-06-05T08:56:54.839Z,1895
2016-06-05T08:57:55.014Z,1930
2016-06-05T08:58:56.438Z,1955
2016-06-05T08:59:55.003Z,1955
2016-06-05T09:00:55.053Z,1950
2016-06-05T09:01:55.103Z,1910
2016-06-05T09:02:54.995Z,1905
2016-06-05T09:03:55.233Z,1910
2016-06-05T09:04:55.267Z,1915
2016-06-05T09:05:55.301Z,1920
2016-06-05T09:06:55.381Z,1910
2016-06-05T09:07:55.400Z,1900
2016-06-05T09:08:55.309Z,1875
2016-06-05T09:09:55.514Z,1865
2016-06-05T09:10:55.564Z,1860
2016-06-05T09:11:55.613Z,1895
2016-06-05T09:12:56.163Z,1930
2016-06-05T09:13:56.666Z,1930
2016-06-05T09:14:55.777Z,1950
2016-06-05T09:15:55.827Z,1935
2016-06-05T09:16:55.877Z,1960
2016-06-05T09:17:55.927Z,1970
2016-06-05T09:18:55.960Z,1965
2016-06-05T09:19:56.010Z,1965
2016-06-05T09:20:56.091Z,1970
2016-06-05T09:21:56.126Z,1960
2016-06-05T09:22:56.190Z,1995
2016-06-05T09:23:56.239Z,2030
2016-06-05T09:24:56.273Z,2045
2016-06-05T09:25:56.324Z,2010
2016-06-05T09:26:56.389Z,2000
2016-06-05T09:27:58.141Z,1985
2016-06-05T09:28:57.628Z,1960
2016-06-05T09:29:56.537Z,1970
2016-06-05T09:30:56.587Z,2020
2016-06-05T09:31:56.636Z,2065
2016-06-05T09:32:56.686Z,2100
2016-06-05T09:33:56.736Z,2100
2016-06-05T09:34:56.786Z,2105
2016-06-05T09:35:56.834Z,2080
2016-06-05T09:36:56.899Z,2045
2016-06-05T09:37:56.933Z,2000
2016-06-05T09:38:56.999Z,1975
2016-06-05T09:39:57.049Z,1990
2016-06-05T09:40:57.097Z,1995
2016-06-05T09:41:57.148Z,2015
2016-06-05T09:42:57.635Z,2010
2016-06-05T09:43:57.418Z,2000
2016-06-05T09:44:57.296Z,1985
2016-06-05T09:45:57.361Z,1935
2016-06-05T09:46:57.443Z,1940
2016-06-05T09:47:57.460Z,1950
2016-06-05T09:48:57.526Z,1895
2016-06-05T09:49:57.560Z,1910
2016-06-05T09:50:57.625Z,1950
2016-06-05T09:51:57.674Z,2005
2016-06-05T09:52:57.740Z,2075
2016-06-05T09:53:57.773Z,2110
2016-06-05T09:54:57.823Z,2125
2016-06-05T09:55:57.888Z,2075
2016-06-05T09:56:57.782Z,1995
2016-06-05T09:57:58.190Z,1905
2016-06-05T09:58:59.475Z,1845
2016-06-05T09:59:58.103Z,1795
2016-06-05T10:00:58.137Z,1810
2016-06-05T10:01:58.201Z,1890
2016-06-05T10:02:58.251Z,1945
2016-06-05T10:03:58.378Z,2000
2016-06-05T10:04:58.366Z,2030
2016-06-05T10:05:58.414Z,2025
2016-06-05T10:06:58.450Z,2005
2016-06-05T10:07:58.514Z,2010
2016-06-05T10:08:58.580Z,2005
2016-06-05T10:09:58.613Z,2015
2016-06-05T10:10:58.663Z,2030
2016-06-05T10:11:58.728Z,2050
2016-06-05T10:12:59.200Z,2040
2016-06-05T10:13:58.999Z,2070
2016-06-05T10:14:58.876Z,2065
2016-06-05T10:15:58.926Z,2065
2016-06-05T10:16:59.210Z,2050
2016-06-05T10:17:59.057Z,2035
2016-06-05T10:18:59.168Z,2000
2016-06-05T10:19:59.171Z,1985
2016-06-05T10:20:59.221Z,1965
2016-06-05T10:21:59.239Z,1975
2016-06-05T10:22:59.289Z,1985
2016-06-05T10:23:59.354Z,1990
2016-06-05T10:24:59.388Z,1990
2016-06-05T10:25:59.454Z,2005
2016-06-05T10:26:59.518Z,2010
2016-06-05T10:28:00.177Z,2035
2016-06-05T10:28:59.321Z,2030
2016-06-05T10:29:59.668Z,1990
2016-06-05T10:30:59.717Z,1955
2016-06-05T10:31:59.766Z,1940
2016-06-05T10:32:59.831Z,1950
2016-06-05T10:33:59.897Z,1950
2016-06-05T10:34:59.947Z,1960
2016-06-05T10:35:59.995Z,1985
2016-06-05T10:37:00.045Z,2045
2016-06-05T10:38:00.111Z,2055
2016-06-05T10:39:00.003Z,2020
2016-06-05T10:40:00.210Z,2025
2016-06-05T10:41:00.259Z,2035
2016-06-05T10:42:00.324Z,2090
2016-06-05T10:43:00.264Z,2095
2016-06-05T10:44:00.658Z,2085
2016-06-05T10:45:00.488Z,2070
2016-06-05T10:46:00.539Z,2075
2016-06-05T10:47:00.432Z,2045
2016-06-05T10:48:00.652Z,2030
2016-06-05T10:49:00.702Z,1990
2016-06-05T10:50:00.752Z,1965
2016-06-05T10:51:00.818Z,1950
2016-06-05T10:52:00.882Z,1910
2016-06-05T10:53:00.932Z,1930
2016-06-05T10:54:00.825Z,1910
2016-06-05T10:55:00.876Z,1865
2016-06-05T10:56:01.112Z,1785
2016-06-05T10:57:01.146Z,1720
2016-06-05T10:58:01.289Z,1695
2016-06-05T10:59:01.901Z,1790
2016-06-05T11:00:01.326Z,1855
2016-06-05T11:01:01.375Z,1875
2016-06-05T11:02:01.425Z,1880
2016-06-05T11:03:01.475Z,1875
2016-06-05T11:04:01.540Z,1890
2016-06-05T11:05:01.590Z,1910
2016-06-05T11:06:01.655Z,1975
2016-06-05T11:07:01.719Z,2010
2016-06-05T11:08:01.753Z,2055
2016-06-05T11:09:01.803Z,2105
2016-06-05T11:10:01.853Z,2140
2016-06-05T11:11:01.919Z,2185
2016-06-05T11:12:01.967Z,2245
2016-06-05T11:13:02.299Z,2285
2016-06-05T11:14:03.161Z,2200
2016-06-05T11:15:01.992Z,2155
2016-06-05T11:16:02.196Z,440
2016-06-05T11:17:02.262Z,1400
2016-06-05T11:18:02.312Z,1390
2016-06-05T11:19:02.361Z,505
2016-06-05T11:20:02.411Z,420
2016-06-05T11:21:02.460Z,395
2016-06-05T11:22:02.526Z,725
2016-06-05T11:23:02.590Z,2185
2016-06-05T11:24:02.640Z,2130
2016-06-05T11:25:02.706Z,2085
2016-06-05T11:26:02.724Z,2050
2016-06-05T11:27:02.790Z,2040
2016-06-05T11:28:03.215Z,2000
2016-06-05T11:29:02.935Z,2005
2016-06-05T11:30:02.954Z,2020
2016-06-05T11:31:03.003Z,1980
2016-06-05T11:32:02.912Z,2015
2016-06-05T11:33:03.118Z,2005
2016-06-05T11:34:03.167Z,1975
2016-06-05T11:35:03.217Z,1950
2016-06-05T11:36:03.282Z,1980
2016-06-05T11:37:03.331Z,2055
2016-06-05T11:38:03.366Z,2075
2016-06-05T11:39:03.431Z,2125
2016-06-05T11:40:03.481Z,2225
2016-06-05T11:41:03.389Z,2255
2016-06-05T11:42:03.595Z,2235
2016-06-05T11:43:03.519Z,2190
2016-06-05T11:44:04.272Z,905
2016-06-05T11:45:03.760Z,1750
2016-06-05T11:46:03.825Z,2065
2016-06-05T11:47:03.858Z,735
2016-06-05T11:48:03.924Z,515
2016-06-05T11:49:03.989Z,2170
2016-06-05T11:50:04.038Z,2175
2016-06-05T11:51:04.104Z,2180
2016-06-05T11:52:04.153Z,1975
2016-06-05T11:53:04.202Z,2065
2016-06-05T11:54:04.253Z,2085
2016-06-05T11:55:04.302Z,2020
2016-06-05T11:56:04.367Z,2075
2016-06-05T11:57:04.417Z,2105
2016-06-05T11:58:04.560Z,2180
2016-06-05T11:59:05.500Z,2165
2016-06-05T12:00:04.581Z,2025
2016-06-05T12:01:04.662Z,2055
2016-06-05T12:02:04.555Z,2040
2016-06-05T12:03:04.745Z,2070
2016-06-05T12:04:04.795Z,2110
2016-06-05T12:05:04.859Z,2140
2016-06-05T12:06:04.770Z,2150
2016-06-05T12:07:04.960Z,2100
2016-06-05T12:08:05.039Z,1470
2016-06-05T12:09:05.090Z,465
2016-06-05T12:10:05.156Z,370
2016-06-05T12:11:05.189Z,325
2016-06-05T12:12:05.286Z,285
2016-06-05T12:13:05.976Z,270
2016-06-05T12:14:05.228Z,275
2016-06-05T12:15:05.433Z,310
2016-06-05T12:16:05.484Z,1180
2016-06-05T12:17:05.533Z,2040
2016-06-05T12:18:05.582Z,2070
2016-06-05T12:19:05.648Z,2110
2016-06-05T12:20:05.682Z,2115
2016-06-05T12:21:05.747Z,2110
2016-06-05T12:22:05.781Z,2105
2016-06-05T12:23:05.862Z,2070
2016-06-05T12:24:05.896Z,2045
2016-06-05T12:25:05.960Z,2025
2016-06-05T12:26:06.011Z,2040
2016-06-05T12:27:06.075Z,2030
2016-06-05T12:28:06.171Z,2020
2016-06-05T12:29:06.643Z,1975
2016-06-05T12:30:06.224Z,1925
2016-06-05T12:31:06.289Z,1935
2016-06-05T12:32:06.339Z,1915
2016-06-05T12:33:06.389Z,1905
2016-06-05T12:34:06.438Z,1890
2016-06-05T12:35:06.504Z,1865
2016-06-05T12:36:06.553Z,1880
2016-06-05T12:37:06.602Z,1960
2016-06-05T12:38:06.684Z,1995
2016-06-05T12:39:06.733Z,1995
2016-06-05T12:40:06.783Z,1985
2016-06-05T12:41:06.847Z,1970
2016-06-05T12:42:06.914Z,1950
2016-06-05T12:43:06.869Z,1965
2016-06-05T12:44:06.872Z,1950
2016-06-05T12:45:07.062Z,1890
2016-06-05T12:46:07.127Z,1865
2016-06-05T12:47:07.020Z,1930
2016-06-05T12:48:07.241Z,1950
2016-06-05T12:49:07.291Z,2050
2016-06-05T12:50:07.356Z,2095
2016-06-05T12:51:07.390Z,2075
2016-06-05T12:52:07.455Z,2025
2016-06-05T12:53:07.411Z,1985
2016-06-05T12:54:07.571Z,2020
2016-06-05T12:55:07.635Z,2090
2016-06-05T12:56:07.685Z,2135
2016-06-05T12:57:07.750Z,2035
2016-06-05T12:58:08.378Z,1950
2016-06-05T12:59:09.177Z,1900
2016-06-05T13:00:07.929Z,1940
2016-06-05T13:01:07.808Z,1995
2016-06-05T13:02:08.029Z,1980
2016-06-05T13:03:08.094Z,1835
2016-06-05T13:04:08.160Z,1485
2016-06-05T13:05:08.037Z,395
2016-06-05T13:06:08.103Z,340
2016-06-05T13:07:08.152Z,335
2016-06-05T13:08:08.373Z,350
2016-06-05T13:09:08.423Z,950
2016-06-05T13:10:08.488Z,1815
2016-06-05T13:11:08.537Z,1780
2016-06-05T13:12:08.603Z,1825
2016-06-05T13:13:08.372Z,375
2016-06-05T13:14:09.155Z,345
2016-06-05T13:15:08.595Z,375
2016-06-05T13:16:08.833Z,445
2016-06-05T13:17:08.866Z,1830
2016-06-05T13:18:08.916Z,1815
2016-06-05T13:19:08.981Z,1790
2016-06-05T13:20:08.890Z,1745
2016-06-05T13:21:09.111Z,1725
2016-06-05T13:22:09.146Z,1750
2016-06-05T13:23:09.210Z,1795
2016-06-05T13:24:09.255Z,1820
2016-06-05T13:25:09.328Z,1820
2016-06-05T13:26:09.417Z,1710
2016-06-05T13:27:09.474Z,1635
2016-06-05T13:28:09.578Z,1625
2016-06-05T13:29:10.472Z,1680
2016-06-05T13:30:09.703Z,1725
2016-06-05T13:31:09.761Z,1730
2016-06-05T13:32:09.819Z,1715
2016-06-05T13:33:09.893Z,1660
2016-06-05T13:34:09.948Z,1745
2016-06-05T13:35:10.016Z,1765
2016-06-05T13:36:10.069Z,1715
2016-06-05T13:37:10.122Z,1695
2016-06-05T13:38:10.174Z,1680
2016-06-05T13:39:10.226Z,1660
2016-06-05T13:40:10.136Z,1665
2016-06-05T13:41:10.328Z,1660
2016-06-05T13:42:10.393Z,1675
2016-06-05T13:43:11.022Z,1635
2016-06-05T13:44:10.791Z,1625
2016-06-05T13:45:10.560Z,1640
2016-06-05T13:46:10.610Z,1695
2016-06-05T13:47:10.675Z,980
2016-06-05T13:48:10.569Z,285
2016-06-05T13:49:10.635Z,265
2016-06-05T13:50:10.559Z,270
2016-06-05T13:51:10.890Z,275